Terminal Aerodrome Forecast
Issued by NWS

Home | Current Version | Previous Version | Graphics & Text | Print | Product List | Glossary On
Versions: 1 2 3 4 5 6 7 8 9 10 11 12 13 14 15 16 17 18 19 20 21 22 23 24 25
000
FTUS43 KTOP 272320
TAFMHK
TAF
KMHK 272320Z 2800/2824 12006KT P6SM -SHRA OVC070
     FM280600 08012KT 6SM SHRA VCTS SCT015 BKN025CB
     FM281100 09010KT P6SM VCSH OVC008
     FM281600 19006KT P6SM OVC015
     FM282000 VRB05KT P6SM BKN035=

USA.gov is the U.S. government's official web portal to all federal, state and local government web resources and services.